createdAt,value
2019-06-20T00:00:38.341Z,3.40
2019-06-20T00:03:06.017Z,3.80
2019-06-20T00:05:33.717Z,4.25
2019-06-20T00:08:01.369Z,4.67
2019-06-20T00:10:29.020Z,4.17
2019-06-20T00:13:00.366Z,4.03
2019-06-20T00:15:26.099Z,3.87
2019-06-20T00:17:53.757Z,3.85
2019-06-20T00:20:21.416Z,4.13
2019-06-20T00:22:49.078Z,4.20
2019-06-20T00:25:16.797Z,4.00
2019-06-20T00:27:44.440Z,4.12
2019-06-20T00:30:12.120Z,4.43
2019-06-20T00:32:40.170Z,4.60
2019-06-20T00:35:07.903Z,4.60
2019-06-20T00:37:35.551Z,4.57
2019-06-20T00:40:03.213Z,4.70
2019-06-20T00:42:30.868Z,4.60
2019-06-20T00:44:58.591Z,4.57
2019-06-20T00:47:26.264Z,4.27
2019-06-20T00:49:53.940Z,4.57
2019-06-20T00:52:21.591Z,4.87
2019-06-20T00:54:49.249Z,4.58
2019-06-20T00:57:16.891Z,4.57
2019-06-20T00:59:44.547Z,4.30
2019-06-20T01:02:12.279Z,4.40
2019-06-20T01:04:39.983Z,4.60
2019-06-20T01:07:07.644Z,4.63
2019-06-20T01:09:35.372Z,4.55
2019-06-20T01:12:03.028Z,4.17
2019-06-20T01:14:30.683Z,4.60
2019-06-20T01:16:58.355Z,4.75
2019-06-20T01:19:26.004Z,4.37
2019-06-20T01:21:53.763Z,4.93
2019-06-20T01:24:21.418Z,4.30
2019-06-20T01:26:49.106Z,4.27
2019-06-20T01:29:16.794Z,4.07
2019-06-20T01:31:44.439Z,4.97
2019-06-20T01:34:12.157Z,4.23
2019-06-20T01:36:40.000Z,3.97
2019-06-20T01:39:07.714Z,4.27
2019-06-20T01:41:35.366Z,4.00
2019-06-20T01:44:03.016Z,4.12
2019-06-20T01:46:30.684Z,4.20
2019-06-20T01:48:58.312Z,4.40
2019-06-20T01:51:25.982Z,4.10
2019-06-20T01:53:53.631Z,3.95
2019-06-20T01:56:21.300Z,4.80
2019-06-20T01:58:48.978Z,4.90
2019-06-20T02:01:16.632Z,4.85
2019-06-20T02:03:44.275Z,4.55
2019-06-20T02:06:11.932Z,4.30
2019-06-20T02:08:39.741Z,4.60
2019-06-20T02:11:07.560Z,4.65
2019-06-20T02:13:35.216Z,4.57
2019-06-20T02:16:02.870Z,4.60
2019-06-20T02:18:30.516Z,4.63
2019-06-20T02:20:58.166Z,4.87
2019-06-20T02:23:25.806Z,5.03
2019-06-20T02:25:53.447Z,4.70
2019-06-20T02:28:21.153Z,4.73
2019-06-20T02:30:48.804Z,5.53
2019-06-20T02:33:16.456Z,4.90
2019-06-20T02:35:44.101Z,5.22
2019-06-20T02:38:11.754Z,5.10
2019-06-20T02:40:39.408Z,5.00
2019-06-20T02:43:07.068Z,4.92
2019-06-20T02:45:34.721Z,5.00
2019-06-20T02:48:02.377Z,5.45
2019-06-20T02:50:30.129Z,5.13
2019-06-20T02:52:57.771Z,5.30
2019-06-20T02:55:25.432Z,4.93
2019-06-20T02:57:53.079Z,5.28
2019-06-20T03:00:20.723Z,5.50
2019-06-20T03:02:48.390Z,4.90
2019-06-20T03:05:16.077Z,5.73
2019-06-20T03:07:43.942Z,6.00
2019-06-20T03:10:11.575Z,5.55
2019-06-20T03:12:39.235Z,4.93
2019-06-20T03:15:06.870Z,5.50
2019-06-20T03:17:34.623Z,6.12
2019-06-20T03:20:02.358Z,5.30
2019-06-20T03:22:30.131Z,5.53
2019-06-20T03:24:57.772Z,5.60
2019-06-20T03:27:25.431Z,5.20
2019-06-20T03:29:53.082Z,5.72
2019-06-20T03:32:20.729Z,6.13
2019-06-20T03:34:48.406Z,5.17
2019-06-20T03:37:16.073Z,5.60
2019-06-20T03:39:43.719Z,5.83
2019-06-20T03:42:11.371Z,6.07
2019-06-20T03:44:39.015Z,6.27
2019-06-20T03:47:06.668Z,6.40
2019-06-20T03:49:34.318Z,5.37
2019-06-20T03:52:01.968Z,5.67
2019-06-20T03:54:29.693Z,5.33
2019-06-20T03:56:57.411Z,6.33
2019-06-20T03:59:25.092Z,5.43
2019-06-20T04:01:52.744Z,6.17
2019-06-20T04:04:20.387Z,5.47
2019-06-20T04:06:48.053Z,5.60
2019-06-20T04:09:15.934Z,6.00
2019-06-20T04:11:43.563Z,5.62
2019-06-20T04:14:11.224Z,5.90
2019-06-20T04:16:38.855Z,5.83
2019-06-20T04:19:06.513Z,5.67
2019-06-20T04:21:34.149Z,6.12
2019-06-20T04:24:01.798Z,5.50
2019-06-20T04:26:29.527Z,6.55
2019-06-20T04:28:57.220Z,6.07
2019-06-20T04:31:24.928Z,6.08
2019-06-20T04:33:52.580Z,5.70
2019-06-20T04:36:20.235Z,5.60
2019-06-20T04:38:47.909Z,5.40
2019-06-20T04:41:15.557Z,5.60
2019-06-20T04:43:43.210Z,5.35
2019-06-20T04:46:19.370Z,5.83
2019-06-20T04:48:47.021Z,5.55
2019-06-20T04:51:14.662Z,5.12
2019-06-20T04:53:42.334Z,5.62
2019-06-20T04:56:09.980Z,5.30
2019-06-20T04:58:37.839Z,6.00
2019-06-20T05:01:05.767Z,6.03
2019-06-20T05:03:35.021Z,5.42
2019-06-20T05:06:02.687Z,5.50
2019-06-20T05:08:30.379Z,5.00
2019-06-20T05:10:58.051Z,6.13
2019-06-20T05:13:25.711Z,6.20
2019-06-20T05:15:53.628Z,5.78
2019-06-20T05:18:21.411Z,5.80
2019-06-20T05:20:49.055Z,6.10
2019-06-20T05:23:16.732Z,5.95
2019-06-20T05:25:44.463Z,5.80
2019-06-20T05:28:12.132Z,6.17
2019-06-20T05:30:39.788Z,6.63
2019-06-20T05:33:07.446Z,6.37
2019-06-20T05:35:35.095Z,6.92
2019-06-20T05:38:02.823Z,6.90
2019-06-20T05:40:30.516Z,6.83
2019-06-20T05:42:58.261Z,6.83
2019-06-20T05:45:25.929Z,7.28
2019-06-20T05:47:53.591Z,6.95
2019-06-20T05:50:21.438Z,7.13
2019-06-20T05:52:49.072Z,7.08
2019-06-20T05:55:22.403Z,7.73
2019-06-20T05:57:50.059Z,7.57
2019-06-20T06:00:18.534Z,6.90
2019-06-20T06:02:46.390Z,7.17
2019-06-20T06:05:14.136Z,7.43
2019-06-20T06:07:41.794Z,7.03
2019-06-20T06:10:09.447Z,6.27
2019-06-20T06:12:37.112Z,6.72
2019-06-20T06:15:06.265Z,6.57
2019-06-20T06:17:34.349Z,6.90
2019-06-20T06:20:02.075Z,5.62
2019-06-20T06:22:29.851Z,6.05
2019-06-20T06:24:57.510Z,5.75
2019-06-20T06:27:25.205Z,6.10
2019-06-20T06:29:52.940Z,5.92
2019-06-20T06:32:20.620Z,5.87
2019-06-20T06:34:48.276Z,5.83
2019-06-20T06:37:16.026Z,5.75
2019-06-20T06:39:43.677Z,6.20
2019-06-20T06:42:11.337Z,5.67
2019-06-20T06:44:39.013Z,6.73
2019-06-20T06:47:06.663Z,6.43
2019-06-20T06:49:34.339Z,6.33
2019-06-20T06:52:01.977Z,6.00
2019-06-20T06:54:29.628Z,6.45
2019-06-20T06:56:57.294Z,5.90
2019-06-20T06:59:24.961Z,6.60
2019-06-20T07:01:52.640Z,6.20
2019-06-20T07:04:20.323Z,6.00
2019-06-20T07:06:48.059Z,5.77
2019-06-20T07:09:15.719Z,4.92
2019-06-20T07:11:43.397Z,5.10
2019-06-20T07:14:11.124Z,5.42
2019-06-20T07:16:38.913Z,5.40
2019-06-20T07:19:06.569Z,5.10
2019-06-20T07:21:34.228Z,5.20
2019-06-20T07:24:01.869Z,4.20
2019-06-20T07:26:29.540Z,5.28
2019-06-20T07:28:57.324Z,5.22
2019-06-20T07:31:25.090Z,4.87
2019-06-20T07:33:52.832Z,3.80
2019-06-20T07:36:20.527Z,3.60
2019-06-20T07:38:48.197Z,3.97
2019-06-20T07:41:15.848Z,3.55
2019-06-20T07:43:43.506Z,3.10
2019-06-20T07:46:11.249Z,3.25
2019-06-20T07:48:38.900Z,3.00
2019-06-20T07:51:06.676Z,3.43
2019-06-20T07:53:34.457Z,3.73
2019-06-20T07:56:02.122Z,3.72
2019-06-20T07:58:29.848Z,3.25
2019-06-20T08:00:57.534Z,3.15
2019-06-20T08:03:25.316Z,3.37
2019-06-20T08:05:53.048Z,3.40
2019-06-20T08:08:20.695Z,2.95
2019-06-20T08:10:48.348Z,2.90
2019-06-20T08:13:16.023Z,3.12
2019-06-20T08:15:43.926Z,2.80
2019-06-20T08:18:11.591Z,2.52
2019-06-20T08:20:39.279Z,2.80
2019-06-20T08:23:06.939Z,2.85
2019-06-20T08:25:34.593Z,2.70
2019-06-20T08:28:02.525Z,3.13
2019-06-20T08:30:30.287Z,3.22
2019-06-20T08:32:59.809Z,2.70
2019-06-20T08:35:27.320Z,2.65
2019-06-20T08:37:56.052Z,2.60
2019-06-20T08:40:24.399Z,2.80
2019-06-20T08:42:52.101Z,2.90
2019-06-20T08:45:19.842Z,2.70
2019-06-20T08:47:47.569Z,2.80
2019-06-20T08:50:15.271Z,2.90
2019-06-20T08:52:42.955Z,3.00
2019-06-20T08:55:10.639Z,3.20
2019-06-20T08:57:38.354Z,3.22
2019-06-20T09:02:33.785Z,3.20
2019-06-20T09:07:29.133Z,3.00
2019-06-20T09:09:57.602Z,3.30
2019-06-20T09:12:25.552Z,3.58
2019-06-20T09:14:53.643Z,3.15
2019-06-20T09:17:21.505Z,3.12
2019-06-20T09:19:49.211Z,3.33
2019-06-20T09:22:16.906Z,3.62
2019-06-20T09:24:44.611Z,3.50
2019-06-20T09:27:12.466Z,3.22
2019-06-20T09:29:42.002Z,2.92
2019-06-20T09:32:09.578Z,3.47
2019-06-20T09:34:37.235Z,3.15
2019-06-20T09:37:04.931Z,3.15
2019-06-20T09:39:32.595Z,3.05
2019-06-20T09:42:00.261Z,3.37
2019-06-20T09:44:27.966Z,2.85
2019-06-20T09:46:56.361Z,3.27
2019-06-20T09:49:24.282Z,3.30
2019-06-20T09:51:52.203Z,3.17
2019-06-20T09:54:19.944Z,3.15
2019-06-20T09:56:50.281Z,3.10
2019-06-20T09:59:27.194Z,3.70
2019-06-20T10:01:46.712Z,3.05
2019-06-20T10:04:15.420Z,3.20
2019-06-20T10:06:43.075Z,3.42
2019-06-20T10:09:10.743Z,3.67
2019-06-20T10:11:38.398Z,3.42
2019-06-20T10:14:06.083Z,3.45
2019-06-20T10:16:45.342Z,3.65
2019-06-20T10:19:03.187Z,3.20
2019-06-20T10:21:30.857Z,3.27
2019-06-20T10:23:58.532Z,3.02
2019-06-20T10:26:26.199Z,2.90
2019-06-20T10:28:53.860Z,3.00
2019-06-20T10:31:21.511Z,2.85
2019-06-20T10:33:50.841Z,3.50
2019-06-20T10:36:18.642Z,2.70
2019-06-20T10:38:46.544Z,2.95
2019-06-20T10:41:14.647Z,2.90
2019-06-20T10:43:43.018Z,2.98
2019-06-20T10:46:11.887Z,2.58
2019-06-20T10:48:39.551Z,2.30
2019-06-20T10:51:12.471Z,2.50
2019-06-20T10:53:40.135Z,2.60
2019-06-20T10:56:07.807Z,2.47
2019-06-20T10:58:35.545Z,2.92
2019-06-20T11:01:03.206Z,2.75
2019-06-20T11:03:30.942Z,2.90
2019-06-20T11:05:58.594Z,2.80
2019-06-20T11:08:26.276Z,2.75
2019-06-20T11:10:53.939Z,3.08
2019-06-20T11:13:21.580Z,2.72
2019-06-20T11:15:49.241Z,2.72
2019-06-20T11:18:16.902Z,2.37
2019-06-20T11:20:44.550Z,2.98
2019-06-20T11:23:12.261Z,2.37
2019-06-20T11:25:40.234Z,2.77
2019-06-20T11:28:09.447Z,2.60
2019-06-20T11:30:53.486Z,2.47
2019-06-20T11:33:06.514Z,2.08
2019-06-20T11:35:35.895Z,2.00
2019-06-20T11:38:03.551Z,2.30
2019-06-20T11:40:31.314Z,2.50
2019-06-20T11:42:58.975Z,2.40
2019-06-20T11:45:26.641Z,2.50
2019-06-20T11:47:54.297Z,2.33
2019-06-20T11:50:21.951Z,2.40
2019-06-20T11:52:49.688Z,2.62
2019-06-20T11:55:17.475Z,2.40
2019-06-20T11:57:45.172Z,2.35
2019-06-20T12:00:12.856Z,2.60
2019-06-20T12:02:42.210Z,2.27
2019-06-20T12:05:10.076Z,2.58
2019-06-20T12:07:39.533Z,2.50
2019-06-20T12:10:07.159Z,2.10
2019-06-20T12:12:34.831Z,2.75
2019-06-20T12:15:02.483Z,2.50
2019-06-20T12:17:30.167Z,2.98
2019-06-20T12:19:57.975Z,2.45
2019-06-20T12:22:25.701Z,2.80
2019-06-20T12:24:53.366Z,2.47
2019-06-20T12:27:21.011Z,2.52
2019-06-20T12:29:49.355Z,2.67
2019-06-20T12:32:20.138Z,2.33
2019-06-20T12:34:49.029Z,2.45
2019-06-20T12:37:16.845Z,2.37
2019-06-20T12:39:44.511Z,2.62
2019-06-20T12:42:12.160Z,2.40
2019-06-20T12:44:40.125Z,2.42
2019-06-20T12:47:07.884Z,2.15
2019-06-20T12:49:35.530Z,2.15
2019-06-20T12:52:03.231Z,2.42
2019-06-20T12:54:30.967Z,2.22
2019-06-20T12:56:58.675Z,2.20
2019-06-20T12:59:26.326Z,1.80
2019-06-20T13:01:53.988Z,2.10
2019-06-20T13:04:21.656Z,2.20
2019-06-20T13:06:49.544Z,2.35
2019-06-20T13:09:17.274Z,2.10
2019-06-20T13:11:44.932Z,1.77
2019-06-20T13:14:12.628Z,2.72
2019-06-20T13:16:40.722Z,2.30
2019-06-20T13:19:08.516Z,2.25
2019-06-20T13:21:36.182Z,2.22
2019-06-20T13:24:03.881Z,2.25
2019-06-20T13:26:31.628Z,2.17
2019-06-20T13:29:04.140Z,1.98
2019-06-20T13:31:28.640Z,2.40
2019-06-20T13:33:56.302Z,1.92
2019-06-20T13:36:24.004Z,2.42
2019-06-20T13:38:51.742Z,2.17
2019-06-20T13:41:19.490Z,2.37
2019-06-20T13:43:47.146Z,2.12
2019-06-20T13:46:14.836Z,2.17
2019-06-20T13:48:43.921Z,2.47
2019-06-20T13:51:11.904Z,2.17
2019-06-20T13:53:41.177Z,2.70
2019-06-20T13:56:08.988Z,2.80
2019-06-20T13:58:36.647Z,3.00
2019-06-20T14:01:04.510Z,2.87
2019-06-20T14:03:32.171Z,2.58
2019-06-20T14:05:59.849Z,2.72
2019-06-20T14:08:27.541Z,2.65
2019-06-20T14:10:55.293Z,2.30
2019-06-20T14:13:22.961Z,2.30
2019-06-20T14:15:51.261Z,1.70
2019-06-20T14:18:19.061Z,1.72
2019-06-20T14:20:46.813Z,1.70
2019-06-20T14:23:14.524Z,1.77
2019-06-20T14:25:42.455Z,1.90
2019-06-20T14:28:11.621Z,1.72
2019-06-20T14:30:39.366Z,2.10
2019-06-20T14:33:07.095Z,1.77
2019-06-20T14:35:34.992Z,2.30
2019-06-20T14:38:02.740Z,2.40
2019-06-20T14:40:30.419Z,2.50
2019-06-20T14:42:58.068Z,2.75
2019-06-20T14:45:25.735Z,2.60
2019-06-20T14:47:53.484Z,2.55
2019-06-20T14:50:21.340Z,2.30
2019-06-20T14:52:49.961Z,2.65
2019-06-20T14:55:18.797Z,2.90
2019-06-20T14:57:48.449Z,2.40
2019-06-20T15:00:16.107Z,2.10
2019-06-20T15:02:45.391Z,2.20
2019-06-20T15:05:13.238Z,1.95
2019-06-20T15:07:40.974Z,2.20
2019-06-20T15:10:08.618Z,2.55
2019-06-20T15:12:36.288Z,2.42
2019-06-20T15:15:04.943Z,2.10
2019-06-20T15:17:32.655Z,1.95
2019-06-20T15:20:00.591Z,2.15
2019-06-20T15:22:28.335Z,1.80
2019-06-20T15:24:57.197Z,2.20
2019-06-20T15:27:25.029Z,2.22
2019-06-20T15:29:52.759Z,2.22
2019-06-20T15:32:20.494Z,2.10
2019-06-20T15:34:49.373Z,2.17
2019-06-20T15:37:17.174Z,1.82
2019-06-20T15:39:44.835Z,2.40
2019-06-20T15:42:12.496Z,2.17
2019-06-20T15:44:40.224Z,2.30
2019-06-20T15:47:07.868Z,2.30
2019-06-20T15:49:35.572Z,2.15
2019-06-20T15:52:03.278Z,2.40
2019-06-20T15:54:31.505Z,2.22
2019-06-20T15:56:59.170Z,2.52
2019-06-20T15:59:26.835Z,2.33
2019-06-20T16:01:54.574Z,2.58
2019-06-20T16:04:22.239Z,2.27
2019-06-20T16:06:49.965Z,2.10
2019-06-20T16:09:17.747Z,2.22
2019-06-20T16:11:45.514Z,2.60
2019-06-20T16:14:13.229Z,2.30
2019-06-20T16:16:40.891Z,2.17
2019-06-20T16:19:08.615Z,2.35
2019-06-20T16:21:36.357Z,2.40
2019-06-20T16:24:04.036Z,2.67
2019-06-20T16:26:31.901Z,2.42
2019-06-20T16:28:59.565Z,2.60
2019-06-20T16:31:27.407Z,2.60
2019-06-20T16:33:55.265Z,2.50
2019-06-20T16:36:22.960Z,2.40
2019-06-20T16:38:51.212Z,2.45
2019-06-20T16:41:19.024Z,2.70
2019-06-20T16:43:46.755Z,2.02
2019-06-20T16:46:14.434Z,2.35
2019-06-20T16:48:42.155Z,2.67
2019-06-20T16:51:09.852Z,2.52
2019-06-20T16:53:37.601Z,2.47
2019-06-20T16:56:05.250Z,2.52
2019-06-20T16:58:32.911Z,2.20
2019-06-20T17:01:00.576Z,2.50
2019-06-20T17:03:41.252Z,2.40
2019-06-20T17:05:57.748Z,2.17
2019-06-20T17:08:25.396Z,2.40
2019-06-20T17:10:53.058Z,2.50
2019-06-20T17:13:20.796Z,2.45
2019-06-20T17:15:48.541Z,2.50
2019-06-20T17:18:16.276Z,2.50
2019-06-20T17:20:43.933Z,2.50
2019-06-20T17:23:11.590Z,2.75
2019-06-20T17:25:39.258Z,2.90
2019-06-20T17:28:06.926Z,2.85
2019-06-20T17:30:34.688Z,2.62
2019-06-20T17:33:02.335Z,2.83
2019-06-20T17:35:30.130Z,2.37
2019-06-20T17:37:57.785Z,2.40
2019-06-20T17:40:25.457Z,2.55
2019-06-20T17:42:53.189Z,2.92
2019-06-20T17:45:20.860Z,3.87
2019-06-20T17:47:48.515Z,3.27
2019-06-20T17:50:16.198Z,5.78
2019-06-20T17:52:43.878Z,5.97
2019-06-20T17:55:11.539Z,4.10
2019-06-20T17:57:39.182Z,3.22
2019-06-20T18:00:06.838Z,3.10
2019-06-20T18:02:34.556Z,2.60
2019-06-20T18:05:02.421Z,2.58
2019-06-20T18:07:30.161Z,2.60
2019-06-20T18:09:57.930Z,2.85
2019-06-20T18:12:25.581Z,2.58
2019-06-20T18:14:53.371Z,2.60
2019-06-20T18:17:21.092Z,2.90
2019-06-20T18:19:48.848Z,2.60
2019-06-20T18:22:16.565Z,3.12
2019-06-20T18:24:44.233Z,2.75
2019-06-20T18:27:11.892Z,3.10
2019-06-20T18:29:39.557Z,3.00
2019-06-20T18:32:07.250Z,3.90
2019-06-20T18:34:35.149Z,2.92
2019-06-20T18:37:02.840Z,3.00
2019-06-20T18:39:30.507Z,2.95
2019-06-20T18:41:58.225Z,3.15
2019-06-20T18:44:25.924Z,3.05
2019-06-20T18:46:53.654Z,3.50
2019-06-20T18:49:21.402Z,3.30
2019-06-20T18:51:49.100Z,3.42
2019-06-20T18:54:16.764Z,3.25
2019-06-20T18:56:44.426Z,3.08
2019-06-20T18:59:12.117Z,2.95
2019-06-20T19:01:39.841Z,3.00
2019-06-20T19:04:07.535Z,2.98
2019-06-20T19:06:39.135Z,3.10
2019-06-20T19:09:07.237Z,2.70
2019-06-20T19:11:35.189Z,3.25
2019-06-20T19:14:02.908Z,3.33
2019-06-20T19:16:30.665Z,3.47
2019-06-20T19:18:58.322Z,3.85
2019-06-20T19:21:25.966Z,3.35
2019-06-20T19:23:55.447Z,3.27
2019-06-20T19:26:23.026Z,3.42
2019-06-20T19:28:50.855Z,3.35
2019-06-20T19:31:18.658Z,3.25
2019-06-20T19:33:46.344Z,3.25
2019-06-20T19:36:13.999Z,3.10
2019-06-20T19:38:41.675Z,3.22
2019-06-20T19:41:09.539Z,3.30
2019-06-20T19:43:37.187Z,3.40
2019-06-20T19:46:04.854Z,3.33
2019-06-20T19:48:32.656Z,3.20
2019-06-20T19:51:00.432Z,3.80
2019-06-20T19:53:28.148Z,3.87
2019-06-20T19:55:55.831Z,3.20
2019-06-20T19:58:23.496Z,3.40
2019-06-20T20:00:51.187Z,3.30
2019-06-20T20:03:23.960Z,3.62
2019-06-20T20:05:51.623Z,3.90
2019-06-20T20:08:19.485Z,3.33
2019-06-20T20:10:47.358Z,3.50
2019-06-20T20:13:15.519Z,3.40
2019-06-20T20:15:43.367Z,3.65
2019-06-20T20:18:11.088Z,3.30
2019-06-20T20:20:38.755Z,3.70
2019-06-20T20:23:06.416Z,3.87
2019-06-20T20:25:34.084Z,3.60
2019-06-20T20:28:01.801Z,3.65
2019-06-20T20:30:29.456Z,3.42
2019-06-20T20:32:57.219Z,3.33
2019-06-20T20:35:34.960Z,3.77
2019-06-20T20:37:54.293Z,3.40
2019-06-20T20:40:22.328Z,3.30
2019-06-20T20:42:50.069Z,3.80
2019-06-20T20:45:17.791Z,4.80
2019-06-20T20:47:45.480Z,4.42
2019-06-20T20:50:13.138Z,5.20
2019-06-20T20:52:40.798Z,5.87
2019-06-20T20:55:08.463Z,6.00
2019-06-20T20:57:36.135Z,6.40
2019-06-20T21:00:03.861Z,5.92
2019-06-20T21:02:31.674Z,6.30
2019-06-20T21:04:59.388Z,5.87
2019-06-20T21:07:27.032Z,5.28
2019-06-20T21:09:54.687Z,6.30
2019-06-20T21:12:22.395Z,5.80
2019-06-20T21:14:50.250Z,7.20
2019-06-20T21:17:17.990Z,5.87
2019-06-20T21:19:45.645Z,6.17
2019-06-20T21:22:13.307Z,6.83
2019-06-20T21:24:41.006Z,6.70
2019-06-20T21:27:08.865Z,6.70
2019-06-20T21:29:36.652Z,7.03
2019-06-20T21:32:04.464Z,5.67
2019-06-20T21:34:32.109Z,6.50
2019-06-20T21:36:59.755Z,6.90
2019-06-20T21:39:27.420Z,6.40
2019-06-20T21:41:55.062Z,6.03
2019-06-20T21:44:22.800Z,6.60
2019-06-20T21:46:50.595Z,5.37
2019-06-20T21:49:18.251Z,5.67
2019-06-20T21:51:45.983Z,4.43
2019-06-20T21:54:13.652Z,4.80
2019-06-20T21:56:41.300Z,5.20
2019-06-20T21:59:09.099Z,4.92
2019-06-20T22:01:36.806Z,4.90
2019-06-20T22:04:04.751Z,4.90
2019-06-20T22:06:32.394Z,3.83
2019-06-20T22:09:00.035Z,4.25
2019-06-20T22:11:27.699Z,3.90
2019-06-20T22:13:55.510Z,4.47
2019-06-20T22:16:23.179Z,4.30
2019-06-20T22:18:50.917Z,3.80
2019-06-20T22:21:18.604Z,3.60
2019-06-20T22:23:46.257Z,3.83
2019-06-20T22:26:13.907Z,3.95
2019-06-20T22:28:41.568Z,3.87
2019-06-20T22:31:09.224Z,4.80
2019-06-20T22:33:36.999Z,4.70
2019-06-20T22:36:04.732Z,3.72
2019-06-20T22:38:32.448Z,2.95
2019-06-20T22:41:00.217Z,2.70
2019-06-20T22:43:28.009Z,3.37
2019-06-20T22:45:55.674Z,3.27
2019-06-20T22:48:23.323Z,3.00
2019-06-20T22:50:51.105Z,3.27
2019-06-20T22:53:18.770Z,3.22
2019-06-20T22:55:46.429Z,3.50
2019-06-20T22:58:14.095Z,3.70
2019-06-20T23:00:41.760Z,4.78
2019-06-20T23:03:09.407Z,4.60
2019-06-20T23:05:37.064Z,4.93
2019-06-20T23:08:04.766Z,4.78
2019-06-20T23:10:32.433Z,4.20
2019-06-20T23:13:00.192Z,4.30
2019-06-20T23:15:27.861Z,4.10
2019-06-20T23:17:55.513Z,4.13
2019-06-20T23:20:23.163Z,3.60
2019-06-20T23:22:50.930Z,3.85
2019-06-20T23:25:18.665Z,3.40
2019-06-20T23:27:46.340Z,3.60
2019-06-20T23:30:13.982Z,3.40
2019-06-20T23:32:41.634Z,3.17
2019-06-20T23:35:09.364Z,3.47
2019-06-20T23:37:37.647Z,4.00
2019-06-20T23:40:05.328Z,3.85
2019-06-20T23:42:32.989Z,4.23
2019-06-20T23:45:00.642Z,3.60
2019-06-20T23:47:28.307Z,3.67
2019-06-20T23:49:55.961Z,4.33
2019-06-20T23:52:26.135Z,4.20
2019-06-20T23:54:53.859Z,4.20
2019-06-20T23:57:21.773Z,4.13
2019-06-20T23:59:49.420Z,4.63
